sensor_id;sensor_type;location;lat;lon;timestamp;P1;durP1;ratioP1;P2;durP2;ratioP2
3993;SDS011;2011;48.238;13.948;2022-07-10T00:00:34;18.43;;;5.20;;
3993;SDS011;2011;48.238;13.948;2022-07-10T00:03:03;15.07;;;5.77;;
3993;SDS011;2011;48.238;13.948;2022-07-10T00:05:30;9.80;;;5.63;;
3993;SDS011;2011;48.238;13.948;2022-07-10T00:07:59;15.87;;;5.57;;
3993;SDS011;2011;48.238;13.948;2022-07-10T00:10:27;10.47;;;5.47;;
3993;SDS011;2011;48.238;13.948;2022-07-10T00:12:55;12.13;;;5.63;;
3993;SDS011;2011;48.238;13.948;2022-07-10T00:15:22;12.90;;;4.97;;
3993;SDS011;2011;48.238;13.948;2022-07-10T00:17:49;9.00;;;5.50;;
3993;SDS011;2011;48.238;13.948;2022-07-10T00:20:17;9.00;;;5.80;;
3993;SDS011;2011;48.238;13.948;2022-07-10T00:22:45;16.40;;;5.97;;
3993;SDS011;2011;48.238;13.948;2022-07-10T00:25:12;10.30;;;5.70;;
3993;SDS011;2011;48.238;13.948;2022-07-10T00:27:40;7.00;;;4.90;;
3993;SDS011;2011;48.238;13.948;2022-07-10T00:30:07;13.60;;;4.67;;
3993;SDS011;2011;48.238;13.948;2022-07-10T00:32:35;7.90;;;5.40;;
3993;SDS011;2011;48.238;13.948;2022-07-10T00:35:03;15.00;;;5.60;;
3993;SDS011;2011;48.238;13.948;2022-07-10T00:37:32;10.83;;;5.60;;
3993;SDS011;2011;48.238;13.948;2022-07-10T00:39:59;11.40;;;5.67;;
3993;SDS011;2011;48.238;13.948;2022-07-10T00:42:26;12.50;;;6.00;;
3993;SDS011;2011;48.238;13.948;2022-07-10T00:44:54;9.50;;;5.60;;
3993;SDS011;2011;48.238;13.948;2022-07-10T00:47:21;11.77;;;5.33;;
3993;SDS011;2011;48.238;13.948;2022-07-10T00:49:48;12.87;;;5.40;;
3993;SDS011;2011;48.238;13.948;2022-07-10T00:52:15;11.10;;;5.70;;
3993;SDS011;2011;48.238;13.948;2022-07-10T00:54:46;11.10;;;6.03;;
3993;SDS011;2011;48.238;13.948;2022-07-10T00:57:15;7.10;;;5.40;;
3993;SDS011;2011;48.238;13.948;2022-07-10T00:59:43;11.60;;;5.17;;
3993;SDS011;2011;48.238;13.948;2022-07-10T01:02:11;15.93;;;5.70;;
3993;SDS011;2011;48.238;13.948;2022-07-10T01:04:39;11.50;;;6.10;;
3993;SDS011;2011;48.238;13.948;2022-07-10T01:07:06;34.97;;;6.00;;
3993;SDS011;2011;48.238;13.948;2022-07-10T01:09:33;19.23;;;5.80;;
3993;SDS011;2011;48.238;13.948;2022-07-10T01:12:02;11.90;;;6.07;;
3993;SDS011;2011;48.238;13.948;2022-07-10T01:14:30;15.07;;;5.97;;
3993;SDS011;2011;48.238;13.948;2022-07-10T01:16:57;13.23;;;6.27;;
3993;SDS011;2011;48.238;13.948;2022-07-10T01:19:25;13.37;;;6.13;;
3993;SDS011;2011;48.238;13.948;2022-07-10T01:21:53;13.77;;;6.80;;
3993;SDS011;2011;48.238;13.948;2022-07-10T01:24:20;14.07;;;6.63;;
3993;SDS011;2011;48.238;13.948;2022-07-10T01:26:47;9.33;;;6.07;;
3993;SDS011;2011;48.238;13.948;2022-07-10T01:29:14;16.53;;;7.43;;
3993;SDS011;2011;48.238;13.948;2022-07-10T01:31:41;14.60;;;6.67;;
3993;SDS011;2011;48.238;13.948;2022-07-10T01:34:08;18.77;;;8.00;;
3993;SDS011;2011;48.238;13.948;2022-07-10T01:36:36;13.77;;;6.60;;
3993;SDS011;2011;48.238;13.948;2022-07-10T01:39:05;11.40;;;6.80;;
3993;SDS011;2011;48.238;13.948;2022-07-10T01:41:33;9.50;;;6.27;;
3993;SDS011;2011;48.238;13.948;2022-07-10T01:44:00;8.43;;;6.63;;
3993;SDS011;2011;48.238;13.948;2022-07-10T01:46:28;12.97;;;6.87;;
3993;SDS011;2011;48.238;13.948;2022-07-10T01:48:55;15.33;;;8.20;;
3993;SDS011;2011;48.238;13.948;2022-07-10T01:51:22;23.07;;;7.20;;
3993;SDS011;2011;48.238;13.948;2022-07-10T01:53:49;23.50;;;6.07;;
3993;SDS011;2011;48.238;13.948;2022-07-10T01:56:18;11.00;;;6.17;;
3993;SDS011;2011;48.238;13.948;2022-07-10T01:58:45;22.60;;;7.07;;
3993;SDS011;2011;48.238;13.948;2022-07-10T02:01:12;15.57;;;7.03;;
3993;SDS011;2011;48.238;13.948;2022-07-10T02:03:39;9.63;;;6.73;;
3993;SDS011;2011;48.238;13.948;2022-07-10T02:06:24;9.03;;;6.83;;
3993;SDS011;2011;48.238;13.948;2022-07-10T02:08:51;15.13;;;7.50;;
3993;SDS011;2011;48.238;13.948;2022-07-10T02:11:20;8.47;;;6.60;;
3993;SDS011;2011;48.238;13.948;2022-07-10T02:13:47;10.80;;;6.90;;
3993;SDS011;2011;48.238;13.948;2022-07-10T02:16:14;15.27;;;7.23;;
3993;SDS011;2011;48.238;13.948;2022-07-10T02:18:41;23.87;;;7.50;;
3993;SDS011;2011;48.238;13.948;2022-07-10T02:21:08;14.60;;;7.70;;
3993;SDS011;2011;48.238;13.948;2022-07-10T02:23:35;14.60;;;6.80;;
3993;SDS011;2011;48.238;13.948;2022-07-10T02:26:04;10.63;;;7.40;;
3993;SDS011;2011;48.238;13.948;2022-07-10T02:28:32;10.43;;;6.40;;
3993;SDS011;2011;48.238;13.948;2022-07-10T02:31:00;12.20;;;7.00;;
3993;SDS011;2011;48.238;13.948;2022-07-10T02:33:27;10.00;;;7.13;;
3993;SDS011;2011;48.238;13.948;2022-07-10T02:35:54;15.17;;;6.27;;
3993;SDS011;2011;48.238;13.948;2022-07-10T02:38:21;10.80;;;6.70;;
3993;SDS011;2011;48.238;13.948;2022-07-10T02:40:48;14.27;;;6.07;;
3993;SDS011;2011;48.238;13.948;2022-07-10T02:43:15;7.70;;;6.27;;
3993;SDS011;2011;48.238;13.948;2022-07-10T02:45:43;13.43;;;7.30;;
3993;SDS011;2011;48.238;13.948;2022-07-10T02:48:10;16.60;;;7.10;;
3993;SDS011;2011;48.238;13.948;2022-07-10T02:50:37;24.07;;;7.40;;
3993;SDS011;2011;48.238;13.948;2022-07-10T02:53:04;18.97;;;7.53;;
3993;SDS011;2011;48.238;13.948;2022-07-10T02:55:32;11.97;;;7.43;;
3993;SDS011;2011;48.238;13.948;2022-07-10T02:57:59;12.00;;;7.20;;
3993;SDS011;2011;48.238;13.948;2022-07-10T03:00:26;12.10;;;6.87;;
3993;SDS011;2011;48.238;13.948;2022-07-10T03:02:55;10.47;;;7.83;;
3993;SDS011;2011;48.238;13.948;2022-07-10T03:05:22;10.93;;;7.93;;
3993;SDS011;2011;48.238;13.948;2022-07-10T03:07:49;16.33;;;7.47;;
3993;SDS011;2011;48.238;13.948;2022-07-10T03:10:16;11.67;;;7.70;;
3993;SDS011;2011;48.238;13.948;2022-07-10T03:12:43;24.77;;;6.37;;
3993;SDS011;2011;48.238;13.948;2022-07-10T03:15:10;14.87;;;7.63;;
3993;SDS011;2011;48.238;13.948;2022-07-10T03:17:37;12.90;;;6.83;;
3993;SDS011;2011;48.238;13.948;2022-07-10T03:20:07;8.73;;;6.30;;
3993;SDS011;2011;48.238;13.948;2022-07-10T03:22:34;9.17;;;7.17;;
3993;SDS011;2011;48.238;13.948;2022-07-10T03:25:02;11.10;;;6.70;;
3993;SDS011;2011;48.238;13.948;2022-07-10T03:27:30;13.73;;;7.50;;
3993;SDS011;2011;48.238;13.948;2022-07-10T03:29:57;12.63;;;7.10;;
3993;SDS011;2011;48.238;13.948;2022-07-10T03:32:24;12.93;;;6.90;;
3993;SDS011;2011;48.238;13.948;2022-07-10T03:34:51;13.80;;;6.83;;
3993;SDS011;2011;48.238;13.948;2022-07-10T03:37:20;18.40;;;7.10;;
3993;SDS011;2011;48.238;13.948;2022-07-10T03:39:47;10.80;;;6.37;;
3993;SDS011;2011;48.238;13.948;2022-07-10T03:42:14;12.13;;;6.30;;
3993;SDS011;2011;48.238;13.948;2022-07-10T03:44:41;14.03;;;6.90;;
3993;SDS011;2011;48.238;13.948;2022-07-10T03:47:08;7.83;;;6.30;;
3993;SDS011;2011;48.238;13.948;2022-07-10T03:49:35;11.13;;;6.67;;
3993;SDS011;2011;48.238;13.948;2022-07-10T03:52:04;9.53;;;6.30;;
3993;SDS011;2011;48.238;13.948;2022-07-10T03:54:33;10.30;;;6.90;;
3993;SDS011;2011;48.238;13.948;2022-07-10T03:57:00;8.33;;;6.13;;
3993;SDS011;2011;48.238;13.948;2022-07-10T03:59:44;9.03;;;6.70;;
3993;SDS011;2011;48.238;13.948;2022-07-10T04:02:11;14.13;;;7.37;;
3993;SDS011;2011;48.238;13.948;2022-07-10T04:04:38;12.50;;;6.63;;
3993;SDS011;2011;48.238;13.948;2022-07-10T04:07:05;14.80;;;6.40;;
3993;SDS011;2011;48.238;13.948;2022-07-10T04:09:34;10.80;;;6.50;;
3993;SDS011;2011;48.238;13.948;2022-07-10T04:12:01;10.87;;;6.60;;
3993;SDS011;2011;48.238;13.948;2022-07-10T04:14:28;10.27;;;6.30;;
3993;SDS011;2011;48.238;13.948;2022-07-10T04:16:55;15.80;;;6.70;;
3993;SDS011;2011;48.238;13.948;2022-07-10T04:19:22;9.97;;;6.60;;
3993;SDS011;2011;48.238;13.948;2022-07-10T04:21:49;14.23;;;7.20;;
3993;SDS011;2011;48.238;13.948;2022-07-10T04:24:16;15.20;;;7.17;;
3993;SDS011;2011;48.238;13.948;2022-07-10T04:26:45;13.23;;;7.30;;
3993;SDS011;2011;48.238;13.948;2022-07-10T04:29:12;11.67;;;8.07;;
3993;SDS011;2011;48.238;13.948;2022-07-10T04:31:39;10.87;;;7.60;;
3993;SDS011;2011;48.238;13.948;2022-07-10T04:34:06;12.30;;;7.60;;
3993;SDS011;2011;48.238;13.948;2022-07-10T04:36:33;10.30;;;6.87;;
3993;SDS011;2011;48.238;13.948;2022-07-10T04:39:00;14.40;;;7.60;;
3993;SDS011;2011;48.238;13.948;2022-07-10T04:41:27;13.80;;;7.70;;
3993;SDS011;2011;48.238;13.948;2022-07-10T04:43:56;11.03;;;7.60;;
3993;SDS011;2011;48.238;13.948;2022-07-10T04:46:23;9.60;;;7.63;;
3993;SDS011;2011;48.238;13.948;2022-07-10T04:48:50;8.77;;;7.50;;
3993;SDS011;2011;48.238;13.948;2022-07-10T04:51:17;12.53;;;8.07;;
3993;SDS011;2011;48.238;13.948;2022-07-10T04:53:44;10.13;;;7.50;;
3993;SDS011;2011;48.238;13.948;2022-07-10T04:56:11;11.57;;;7.80;;
3993;SDS011;2011;48.238;13.948;2022-07-10T04:58:38;13.20;;;7.00;;
3993;SDS011;2011;48.238;13.948;2022-07-10T05:01:07;11.87;;;7.17;;
3993;SDS011;2011;48.238;13.948;2022-07-10T05:03:34;12.17;;;8.03;;
3993;SDS011;2011;48.238;13.948;2022-07-10T05:06:01;10.00;;;7.70;;
3993;SDS011;2011;48.238;13.948;2022-07-10T05:08:28;18.33;;;7.93;;
3993;SDS011;2011;48.238;13.948;2022-07-10T05:10:55;19.00;;;8.50;;
3993;SDS011;2011;48.238;13.948;2022-07-10T05:13:22;22.33;;;8.70;;
3993;SDS011;2011;48.238;13.948;2022-07-10T05:15:49;11.30;;;7.40;;
3993;SDS011;2011;48.238;13.948;2022-07-10T05:18:17;13.30;;;8.10;;
3993;SDS011;2011;48.238;13.948;2022-07-10T05:20:44;11.50;;;7.70;;
3993;SDS011;2011;48.238;13.948;2022-07-10T05:23:13;13.90;;;8.00;;
3993;SDS011;2011;48.238;13.948;2022-07-10T05:25:40;13.20;;;8.60;;
3993;SDS011;2011;48.238;13.948;2022-07-10T05:28:07;12.80;;;7.90;;
3993;SDS011;2011;48.238;13.948;2022-07-10T05:30:34;11.43;;;7.90;;
3993;SDS011;2011;48.238;13.948;2022-07-10T05:33:01;17.33;;;8.53;;
3993;SDS011;2011;48.238;13.948;2022-07-10T05:35:30;12.57;;;8.30;;
3993;SDS011;2011;48.238;13.948;2022-07-10T05:37:57;9.50;;;7.40;;
3993;SDS011;2011;48.238;13.948;2022-07-10T05:40:24;24.47;;;8.80;;
3993;SDS011;2011;48.238;13.948;2022-07-10T05:42:52;13.70;;;8.70;;
3993;SDS011;2011;48.238;13.948;2022-07-10T05:45:19;16.70;;;8.90;;
3993;SDS011;2011;48.238;13.948;2022-07-10T05:47:46;9.80;;;7.77;;
3993;SDS011;2011;48.238;13.948;2022-07-10T05:50:13;15.20;;;8.93;;
3993;SDS011;2011;48.238;13.948;2022-07-10T05:52:42;11.00;;;8.07;;
3993;SDS011;2011;48.238;13.948;2022-07-10T05:55:09;19.30;;;9.50;;
3993;SDS011;2011;48.238;13.948;2022-07-10T05:57:36;13.00;;;8.97;;
3993;SDS011;2011;48.238;13.948;2022-07-10T06:00:04;10.10;;;8.40;;
3993;SDS011;2011;48.238;13.948;2022-07-10T06:02:32;51.73;;;9.50;;
3993;SDS011;2011;48.238;13.948;2022-07-10T06:04:59;18.50;;;8.63;;
3993;SDS011;2011;48.238;13.948;2022-07-10T06:07:27;10.83;;;8.20;;
3993;SDS011;2011;48.238;13.948;2022-07-10T06:09:55;11.87;;;8.47;;
3993;SDS011;2011;48.238;13.948;2022-07-10T06:12:22;14.67;;;8.60;;
3993;SDS011;2011;48.238;13.948;2022-07-10T06:14:50;11.83;;;7.83;;
3993;SDS011;2011;48.238;13.948;2022-07-10T06:17:17;16.87;;;7.30;;
3993;SDS011;2011;48.238;13.948;2022-07-10T06:19:44;16.23;;;9.00;;
3993;SDS011;2011;48.238;13.948;2022-07-10T06:22:11;12.20;;;7.70;;
3993;SDS011;2011;48.238;13.948;2022-07-10T06:24:58;16.10;;;7.97;;
3993;SDS011;2011;48.238;13.948;2022-07-10T06:27:26;11.07;;;8.87;;
3993;SDS011;2011;48.238;13.948;2022-07-10T06:29:53;21.37;;;7.90;;
3993;SDS011;2011;48.238;13.948;2022-07-10T06:32:20;16.10;;;8.13;;
3993;SDS011;2011;48.238;13.948;2022-07-10T06:34:49;11.90;;;8.20;;
3993;SDS011;2011;48.238;13.948;2022-07-10T06:37:16;16.30;;;9.40;;
3993;SDS011;2011;48.238;13.948;2022-07-10T06:39:44;19.40;;;9.37;;
3993;SDS011;2011;48.238;13.948;2022-07-10T06:42:14;26.40;;;12.53;;
3993;SDS011;2011;48.238;13.948;2022-07-10T06:44:42;24.73;;;11.67;;
3993;SDS011;2011;48.238;13.948;2022-07-10T06:47:09;9.20;;;7.50;;
3993;SDS011;2011;48.238;13.948;2022-07-10T06:49:54;24.53;;;6.90;;
3993;SDS011;2011;48.238;13.948;2022-07-10T06:52:21;11.97;;;7.50;;
3993;SDS011;2011;48.238;13.948;2022-07-10T06:54:49;8.77;;;6.90;;
3993;SDS011;2011;48.238;13.948;2022-07-10T06:57:17;12.73;;;7.03;;
3993;SDS011;2011;48.238;13.948;2022-07-10T06:59:45;13.60;;;6.87;;
3993;SDS011;2011;48.238;13.948;2022-07-10T07:02:12;10.67;;;6.33;;
3993;SDS011;2011;48.238;13.948;2022-07-10T07:04:39;10.03;;;6.70;;
3993;SDS011;2011;48.238;13.948;2022-07-10T07:07:06;7.30;;;6.17;;
3993;SDS011;2011;48.238;13.948;2022-07-10T07:09:33;11.27;;;6.53;;
3993;SDS011;2011;48.238;13.948;2022-07-10T07:12:00;8.80;;;6.03;;
3993;SDS011;2011;48.238;13.948;2022-07-10T07:14:28;8.03;;;5.73;;
3993;SDS011;2011;48.238;13.948;2022-07-10T07:16:55;8.37;;;6.23;;
3993;SDS011;2011;48.238;13.948;2022-07-10T07:19:28;16.60;;;7.07;;
3993;SDS011;2011;48.238;13.948;2022-07-10T07:22:18;11.67;;;5.93;;
3993;SDS011;2011;48.238;13.948;2022-07-10T07:25:03;8.63;;;5.90;;
3993;SDS011;2011;48.238;13.948;2022-07-10T07:27:32;8.20;;;5.93;;
3993;SDS011;2011;48.238;13.948;2022-07-10T07:30:02;7.90;;;5.40;;
3993;SDS011;2011;48.238;13.948;2022-07-10T07:32:31;9.27;;;5.83;;
3993;SDS011;2011;48.238;13.948;2022-07-10T07:34:58;8.07;;;5.10;;
3993;SDS011;2011;48.238;13.948;2022-07-10T07:37:34;9.70;;;5.20;;
3993;SDS011;2011;48.238;13.948;2022-07-10T07:40:03;13.67;;;6.17;;
3993;SDS011;2011;48.238;13.948;2022-07-10T07:42:31;8.30;;;5.60;;
3993;SDS011;2011;48.238;13.948;2022-07-10T07:44:58;8.80;;;5.43;;
3993;SDS011;2011;48.238;13.948;2022-07-10T07:47:27;7.97;;;6.03;;
3993;SDS011;2011;48.238;13.948;2022-07-10T07:49:54;9.77;;;5.73;;
3993;SDS011;2011;48.238;13.948;2022-07-10T07:52:21;10.60;;;6.40;;
3993;SDS011;2011;48.238;13.948;2022-07-10T07:54:48;6.47;;;5.23;;
3993;SDS011;2011;48.238;13.948;2022-07-10T07:57:16;6.83;;;5.13;;
3993;SDS011;2011;48.238;13.948;2022-07-10T07:59:44;10.20;;;5.10;;
3993;SDS011;2011;48.238;13.948;2022-07-10T08:02:11;6.27;;;4.80;;
3993;SDS011;2011;48.238;13.948;2022-07-10T08:04:39;13.13;;;5.40;;
3993;SDS011;2011;48.238;13.948;2022-07-10T08:07:06;6.70;;;5.10;;
3993;SDS011;2011;48.238;13.948;2022-07-10T08:09:33;13.53;;;5.67;;
3993;SDS011;2011;48.238;13.948;2022-07-10T08:12:01;9.73;;;5.50;;
3993;SDS011;2011;48.238;13.948;2022-07-10T08:14:28;6.60;;;4.67;;
3993;SDS011;2011;48.238;13.948;2022-07-10T08:16:55;23.13;;;5.30;;
3993;SDS011;2011;48.238;13.948;2022-07-10T08:19:22;10.50;;;5.33;;
3993;SDS011;2011;48.238;13.948;2022-07-10T08:21:51;12.60;;;5.30;;
3993;SDS011;2011;48.238;13.948;2022-07-10T08:24:18;8.37;;;4.77;;
3993;SDS011;2011;48.238;13.948;2022-07-10T08:26:45;10.53;;;5.33;;
3993;SDS011;2011;48.238;13.948;2022-07-10T08:29:12;8.07;;;5.33;;
3993;SDS011;2011;48.238;13.948;2022-07-10T08:31:40;12.10;;;4.97;;
3993;SDS011;2011;48.238;13.948;2022-07-10T08:34:07;7.60;;;5.00;;
3993;SDS011;2011;48.238;13.948;2022-07-10T08:36:34;15.00;;;5.40;;
3993;SDS011;2011;48.238;13.948;2022-07-10T08:39:02;7.10;;;5.30;;
3993;SDS011;2011;48.238;13.948;2022-07-10T08:41:29;8.57;;;4.60;;
3993;SDS011;2011;48.238;13.948;2022-07-10T08:43:59;8.57;;;4.53;;
3993;SDS011;2011;48.238;13.948;2022-07-10T08:46:26;8.33;;;4.30;;
3993;SDS011;2011;48.238;13.948;2022-07-10T08:48:54;8.20;;;4.47;;
3993;SDS011;2011;48.238;13.948;2022-07-10T08:51:30;5.60;;;4.43;;
3993;SDS011;2011;48.238;13.948;2022-07-10T08:54:04;15.23;;;4.30;;
3993;SDS011;2011;48.238;13.948;2022-07-10T08:56:32;5.50;;;3.50;;
3993;SDS011;2011;48.238;13.948;2022-07-10T08:58:59;6.00;;;3.60;;
3993;SDS011;2011;48.238;13.948;2022-07-10T09:01:28;7.10;;;3.80;;
3993;SDS011;2011;48.238;13.948;2022-07-10T09:03:55;7.80;;;4.00;;
3993;SDS011;2011;48.238;13.948;2022-07-10T09:06:22;6.70;;;4.20;;
3993;SDS011;2011;48.238;13.948;2022-07-10T09:08:59;5.17;;;3.23;;
3993;SDS011;2011;48.238;13.948;2022-07-10T09:11:29;4.80;;;3.40;;
3993;SDS011;2011;48.238;13.948;2022-07-10T09:13:57;7.17;;;3.30;;
3993;SDS011;2011;48.238;13.948;2022-07-10T09:16:26;7.83;;;3.97;;
3993;SDS011;2011;48.238;13.948;2022-07-10T09:18:54;6.17;;;4.00;;
3993;SDS011;2011;48.238;13.948;2022-07-10T09:21:22;9.10;;;3.00;;
3993;SDS011;2011;48.238;13.948;2022-07-10T09:23:49;6.40;;;3.27;;
3993;SDS011;2011;48.238;13.948;2022-07-10T09:26:16;9.57;;;3.30;;
3993;SDS011;2011;48.238;13.948;2022-07-10T09:28:46;7.80;;;3.10;;
3993;SDS011;2011;48.238;13.948;2022-07-10T09:31:19;6.57;;;3.80;;
3993;SDS011;2011;48.238;13.948;2022-07-10T09:33:46;4.53;;;2.70;;
3993;SDS011;2011;48.238;13.948;2022-07-10T09:36:13;8.90;;;2.70;;
3993;SDS011;2011;48.238;13.948;2022-07-10T09:38:47;5.43;;;2.50;;
3993;SDS011;2011;48.238;13.948;2022-07-10T09:41:16;4.73;;;2.53;;
3993;SDS011;2011;48.238;13.948;2022-07-10T09:43:47;4.63;;;2.40;;
3993;SDS011;2011;48.238;13.948;2022-07-10T09:46:15;7.47;;;2.90;;
3993;SDS011;2011;48.238;13.948;2022-07-10T09:48:43;8.83;;;2.90;;
3993;SDS011;2011;48.238;13.948;2022-07-10T09:51:10;8.97;;;2.77;;
3993;SDS011;2011;48.238;13.948;2022-07-10T09:53:38;7.70;;;2.70;;
3993;SDS011;2011;48.238;13.948;2022-07-10T09:56:07;4.90;;;2.37;;
3993;SDS011;2011;48.238;13.948;2022-07-10T09:58:35;8.43;;;2.30;;
3993;SDS011;2011;48.238;13.948;2022-07-10T10:01:05;9.13;;;2.43;;
3993;SDS011;2011;48.238;13.948;2022-07-10T10:03:33;5.77;;;2.40;;
3993;SDS011;2011;48.238;13.948;2022-07-10T10:06:02;4.57;;;2.00;;
3993;SDS011;2011;48.238;13.948;2022-07-10T10:08:37;7.40;;;1.83;;
3993;SDS011;2011;48.238;13.948;2022-07-10T10:11:13;8.47;;;2.00;;
3993;SDS011;2011;48.238;13.948;2022-07-10T10:13:43;7.63;;;2.53;;
3993;SDS011;2011;48.238;13.948;2022-07-10T10:16:11;8.43;;;2.57;;
3993;SDS011;2011;48.238;13.948;2022-07-10T10:18:39;4.53;;;2.00;;
3993;SDS011;2011;48.238;13.948;2022-07-10T10:21:22;5.70;;;2.10;;
3993;SDS011;2011;48.238;13.948;2022-07-10T10:23:50;4.67;;;1.97;;
3993;SDS011;2011;48.238;13.948;2022-07-10T10:26:18;5.60;;;1.80;;
3993;SDS011;2011;48.238;13.948;2022-07-10T10:28:47;6.73;;;2.10;;
3993;SDS011;2011;48.238;13.948;2022-07-10T10:31:16;4.50;;;2.03;;
3993;SDS011;2011;48.238;13.948;2022-07-10T10:33:47;5.03;;;1.97;;
3993;SDS011;2011;48.238;13.948;2022-07-10T10:39:13;14.87;;;2.27;;
3993;SDS011;2011;48.238;13.948;2022-07-10T10:41:42;7.63;;;2.17;;
3993;SDS011;2011;48.238;13.948;2022-07-10T10:44:26;6.67;;;2.20;;
3993;SDS011;2011;48.238;13.948;2022-07-10T10:47:05;6.97;;;2.37;;
3993;SDS011;2011;48.238;13.948;2022-07-10T10:49:49;10.47;;;1.83;;
3993;SDS011;2011;48.238;13.948;2022-07-10T10:52:27;12.50;;;2.20;;
3993;SDS011;2011;48.238;13.948;2022-07-10T10:55:04;4.20;;;2.07;;
3993;SDS011;2011;48.238;13.948;2022-07-10T10:57:34;4.93;;;2.13;;
3993;SDS011;2011;48.238;13.948;2022-07-10T11:05:54;5.50;;;2.07;;
3993;SDS011;2011;48.238;13.948;2022-07-10T11:08:37;10.13;;;1.80;;
3993;SDS011;2011;48.238;13.948;2022-07-10T11:14:06;7.67;;;2.50;;
3993;SDS011;2011;48.238;13.948;2022-07-10T11:16:34;3.67;;;1.40;;
3993;SDS011;2011;48.238;13.948;2022-07-10T11:19:05;7.93;;;2.20;;
3993;SDS011;2011;48.238;13.948;2022-07-10T11:21:33;5.90;;;1.87;;
3993;SDS011;2011;48.238;13.948;2022-07-10T11:24:14;4.87;;;1.60;;
3993;SDS011;2011;48.238;13.948;2022-07-10T11:27:02;9.67;;;1.87;;
3993;SDS011;2011;48.238;13.948;2022-07-10T11:29:40;6.73;;;2.13;;
3993;SDS011;2011;48.238;13.948;2022-07-10T11:32:07;8.63;;;3.07;;
3993;SDS011;2011;48.238;13.948;2022-07-10T11:34:36;4.37;;;1.73;;
3993;SDS011;2011;48.238;13.948;2022-07-10T11:37:03;3.17;;;1.60;;
3993;SDS011;2011;48.238;13.948;2022-07-10T11:39:39;4.83;;;1.77;;
3993;SDS011;2011;48.238;13.948;2022-07-10T11:42:06;8.80;;;1.90;;
3993;SDS011;2011;48.238;13.948;2022-07-10T11:44:33;5.90;;;2.40;;
3993;SDS011;2011;48.238;13.948;2022-07-10T11:47:00;4.00;;;1.70;;
3993;SDS011;2011;48.238;13.948;2022-07-10T11:49:28;5.37;;;1.57;;
3993;SDS011;2011;48.238;13.948;2022-07-10T11:52:01;6.70;;;1.90;;
3993;SDS011;2011;48.238;13.948;2022-07-10T11:54:29;8.83;;;1.67;;
3993;SDS011;2011;48.238;13.948;2022-07-10T11:57:04;12.20;;;1.80;;
3993;SDS011;2011;48.238;13.948;2022-07-10T11:59:32;7.73;;;1.53;;
3993;SDS011;2011;48.238;13.948;2022-07-10T12:01:59;9.00;;;1.53;;
3993;SDS011;2011;48.238;13.948;2022-07-10T12:04:28;5.37;;;1.90;;
3993;SDS011;2011;48.238;13.948;2022-07-10T12:06:56;10.23;;;1.77;;
3993;SDS011;2011;48.238;13.948;2022-07-10T12:09:24;5.57;;;1.37;;
3993;SDS011;2011;48.238;13.948;2022-07-10T12:11:58;9.60;;;1.50;;
3993;SDS011;2011;48.238;13.948;2022-07-10T12:14:26;3.10;;;1.17;;
3993;SDS011;2011;48.238;13.948;2022-07-10T12:16:54;5.63;;;1.67;;
3993;SDS011;2011;48.238;13.948;2022-07-10T12:19:22;5.80;;;1.60;;
3993;SDS011;2011;48.238;13.948;2022-07-10T12:21:51;6.40;;;1.80;;
3993;SDS011;2011;48.238;13.948;2022-07-10T12:24:18;4.10;;;1.30;;
3993;SDS011;2011;48.238;13.948;2022-07-10T12:26:47;9.13;;;1.57;;
3993;SDS011;2011;48.238;13.948;2022-07-10T12:29:18;4.77;;;1.40;;
3993;SDS011;2011;48.238;13.948;2022-07-10T12:31:47;8.03;;;1.80;;
3993;SDS011;2011;48.238;13.948;2022-07-10T12:34:15;6.10;;;1.60;;
3993;SDS011;2011;48.238;13.948;2022-07-10T12:36:43;16.10;;;1.70;;
3993;SDS011;2011;48.238;13.948;2022-07-10T12:39:12;4.97;;;1.40;;
3993;SDS011;2011;48.238;13.948;2022-07-10T12:41:55;3.90;;;1.30;;
3993;SDS011;2011;48.238;13.948;2022-07-10T12:44:36;6.53;;;1.70;;
3993;SDS011;2011;48.238;13.948;2022-07-10T12:47:05;8.10;;;1.83;;
3993;SDS011;2011;48.238;13.948;2022-07-10T12:49:50;9.17;;;1.50;;
3993;SDS011;2011;48.238;13.948;2022-07-10T12:52:21;8.83;;;1.67;;
3993;SDS011;2011;48.238;13.948;2022-07-10T12:55:04;13.63;;;1.57;;
3993;SDS011;2011;48.238;13.948;2022-07-10T12:57:45;3.53;;;1.50;;
3993;SDS011;2011;48.238;13.948;2022-07-10T13:00:14;4.73;;;1.60;;
3993;SDS011;2011;48.238;13.948;2022-07-10T13:02:43;4.37;;;1.67;;
3993;SDS011;2011;48.238;13.948;2022-07-10T13:05:10;10.10;;;2.13;;
3993;SDS011;2011;48.238;13.948;2022-07-10T13:07:50;4.80;;;1.60;;
3993;SDS011;2011;48.238;13.948;2022-07-10T13:10:17;3.93;;;1.50;;
3993;SDS011;2011;48.238;13.948;2022-07-10T13:12:46;4.40;;;1.37;;
3993;SDS011;2011;48.238;13.948;2022-07-10T13:15:13;7.63;;;1.53;;
3993;SDS011;2011;48.238;13.948;2022-07-10T13:17:46;9.33;;;1.63;;
3993;SDS011;2011;48.238;13.948;2022-07-10T13:20:16;4.00;;;1.50;;
3993;SDS011;2011;48.238;13.948;2022-07-10T13:22:42;10.57;;;1.70;;
3993;SDS011;2011;48.238;13.948;2022-07-10T13:25:10;4.60;;;1.40;;
3993;SDS011;2011;48.238;13.948;2022-07-10T13:27:37;5.53;;;1.57;;
3993;SDS011;2011;48.238;13.948;2022-07-10T13:30:06;5.70;;;1.70;;
3993;SDS011;2011;48.238;13.948;2022-07-10T13:32:33;5.60;;;1.80;;
3993;SDS011;2011;48.238;13.948;2022-07-10T13:35:00;4.10;;;1.30;;
3993;SDS011;2011;48.238;13.948;2022-07-10T13:37:27;9.50;;;1.90;;
3993;SDS011;2011;48.238;13.948;2022-07-10T13:39:55;4.60;;;1.50;;
3993;SDS011;2011;48.238;13.948;2022-07-10T13:42:22;6.90;;;1.83;;
3993;SDS011;2011;48.238;13.948;2022-07-10T13:44:49;6.27;;;1.60;;
3993;SDS011;2011;48.238;13.948;2022-07-10T13:47:17;4.37;;;1.33;;
3993;SDS011;2011;48.238;13.948;2022-07-10T13:49:44;5.20;;;1.50;;
3993;SDS011;2011;48.238;13.948;2022-07-10T13:52:11;6.60;;;1.50;;
3993;SDS011;2011;48.238;13.948;2022-07-10T13:54:38;4.13;;;1.13;;
3993;SDS011;2011;48.238;13.948;2022-07-10T13:57:06;4.10;;;1.30;;
3993;SDS011;2011;48.238;13.948;2022-07-10T13:59:33;4.73;;;1.30;;
3993;SDS011;2011;48.238;13.948;2022-07-10T14:02:00;5.77;;;1.67;;
3993;SDS011;2011;48.238;13.948;2022-07-10T14:04:29;5.13;;;1.40;;
3993;SDS011;2011;48.238;13.948;2022-07-10T14:06:56;5.60;;;1.40;;
3993;SDS011;2011;48.238;13.948;2022-07-10T14:09:23;6.67;;;1.30;;
3993;SDS011;2011;48.238;13.948;2022-07-10T14:11:51;5.03;;;1.17;;
3993;SDS011;2011;48.238;13.948;2022-07-10T14:14:18;6.83;;;1.50;;
3993;SDS011;2011;48.238;13.948;2022-07-10T14:16:46;9.10;;;1.70;;
3993;SDS011;2011;48.238;13.948;2022-07-10T14:19:14;4.37;;;1.40;;
3993;SDS011;2011;48.238;13.948;2022-07-10T14:21:43;3.20;;;1.13;;
3993;SDS011;2011;48.238;13.948;2022-07-10T14:24:10;5.23;;;1.30;;
3993;SDS011;2011;48.238;13.948;2022-07-10T14:26:37;5.93;;;1.30;;
3993;SDS011;2011;48.238;13.948;2022-07-10T14:29:04;9.83;;;2.10;;
3993;SDS011;2011;48.238;13.948;2022-07-10T14:31:31;4.03;;;1.30;;
3993;SDS011;2011;48.238;13.948;2022-07-10T14:33:58;5.80;;;1.10;;
3993;SDS011;2011;48.238;13.948;2022-07-10T14:36:26;3.23;;;1.10;;
3993;SDS011;2011;48.238;13.948;2022-07-10T14:38:54;4.20;;;1.20;;
3993;SDS011;2011;48.238;13.948;2022-07-10T14:41:22;5.83;;;1.53;;
3993;SDS011;2011;48.238;13.948;2022-07-10T14:43:50;4.73;;;1.47;;
3993;SDS011;2011;48.238;13.948;2022-07-10T14:46:17;7.57;;;1.50;;
3993;SDS011;2011;48.238;13.948;2022-07-10T14:48:45;13.00;;;1.40;;
3993;SDS011;2011;48.238;13.948;2022-07-10T14:51:12;7.07;;;1.70;;
3993;SDS011;2011;48.238;13.948;2022-07-10T14:53:40;4.40;;;1.50;;
3993;SDS011;2011;48.238;13.948;2022-07-10T14:56:09;6.97;;;1.63;;
3993;SDS011;2011;48.238;13.948;2022-07-10T14:58:37;5.87;;;1.50;;
3993;SDS011;2011;48.238;13.948;2022-07-10T15:01:04;4.07;;;1.30;;
3993;SDS011;2011;48.238;13.948;2022-07-10T15:03:31;8.33;;;1.70;;
3993;SDS011;2011;48.238;13.948;2022-07-10T15:05:58;5.43;;;1.30;;
3993;SDS011;2011;48.238;13.948;2022-07-10T15:08:26;3.97;;;1.33;;
3993;SDS011;2011;48.238;13.948;2022-07-10T15:10:53;7.90;;;1.57;;
3993;SDS011;2011;48.238;13.948;2022-07-10T15:13:21;6.80;;;1.63;;
3993;SDS011;2011;48.238;13.948;2022-07-10T15:15:48;5.03;;;1.13;;